Jamison, Pennsylvania
Current Conditions -  °F | °C
As of 1:54 PM on Thursday 30 Oct 2014 (Local Time) from KDYL Reporting Station
Broken Clouds Broken Clouds  
Wind Chill: 56°   Ceiling: 6000
Heat Index: 56°   Visibility: 10mi
Dew Point: 38°   Wind: 5mph
Humidity: 51%   Direction: 320°NW
Pressure: 29.99"   Gusts: NA
Location:  40.27°N, 75.1°W
Report Text: KDYL 301754Z AUTO 32004KT 10SM SCT044 SCT050 BKN060 13/03 A2999 RMK AO2 SLP158 T01330033 10144 20039 58010 $
Loading
Personal Weather Stations






























Interactive Weather Map
Tropical Storm Tracking
New forecast layout! Learn more

10-Day Weather Forecast

Advertisements
Track Severe Weather on mobile